Time;durP1;ratioP1;P1;durP2;ratioP2;P2;SDS_P1;SDS_P2;PMS_P1;PMS_P2;Temp;Humidity;BMP_temperature;BMP_pressure;BME280_temperature;BME280_humidity;BME280_pressure;Samples;Min_cycle;Max_cycle;Signal;HPM_P1;HPM_P2
2021/01/12 00:01:39;;;;;;;71.13;35.40;;;0.00;99.90;;;;;;4174554;28;20282;-43
2021/01/12 00:03:41;;;;;;;67.30;35.33;;;-0.10;99.90;;;;;;4173857;28;20340;-38
2021/01/12 00:05:42;;;;;;;72.60;36.63;;;0.00;99.90;;;;;;4173842;28;20340;-38
2021/01/12 00:07:44;;;;;;;77.23;36.83;;;-0.10;99.90;;;;;;4173419;28;20298;-39
2021/01/12 00:09:45;;;;;;;78.30;40.20;;;-0.10;99.90;;;;;;4173601;28;20774;-41
2021/01/12 00:11:46;;;;;;;76.63;35.67;;;-0.10;99.90;;;;;;4173627;28;20278;-42
2021/01/12 00:13:47;;;;;;;77.07;39.07;;;-0.10;99.90;;;;;;4173826;28;20258;-37
2021/01/12 00:15:48;;;;;;;79.63;38.50;;;-0.20;99.90;;;;;;4173188;28;20274;-42
2021/01/12 00:17:49;;;;;;;79.57;39.47;;;-0.10;99.90;;;;;;4174126;28;20278;-40
2021/01/12 00:19:51;;;;;;;75.17;37.30;;;-0.20;99.90;;;;;;4173756;28;20284;-42
2021/01/12 00:21:52;;;;;;;78.10;38.57;;;-0.20;99.90;;;;;;4173021;28;20270;-40
2021/01/12 00:23:53;;;;;;;75.20;38.87;;;-0.20;99.90;;;;;;4173490;28;20319;-38
2021/01/12 00:25:54;;;;;;;81.60;39.03;;;-0.20;99.90;;;;;;4173362;28;20746;-39
2021/01/12 00:27:55;;;;;;;79.30;39.03;;;-0.20;99.90;;;;;;4173920;28;21417;-40
2021/01/12 00:29:57;;;;;;;80.27;38.83;;;-0.20;99.90;;;;;;4173557;28;20750;-41
2021/01/12 00:31:58;;;;;;;80.23;40.23;;;-0.10;99.90;;;;;;4174043;28;20274;-38
2021/01/12 00:33:59;;;;;;;88.93;44.17;;;-0.20;99.90;;;;;;4173122;28;20332;-42
2021/01/12 00:36:08;;;;;;;92.50;45.10;;;-0.20;99.90;;;;;;4173487;28;20694;-41
2021/01/12 00:38:09;;;;;;;101.47;46.83;;;-0.20;99.90;;;;;;4173359;28;20266;-38
2021/01/12 00:40:11;;;;;;;93.33;43.77;;;-0.20;99.90;;;;;;4173150;28;20274;-38
2021/01/12 00:42:12;;;;;;;83.13;39.87;;;-0.20;99.90;;;;;;4173346;28;20274;-42
2021/01/12 00:44:14;;;;;;;73.40;36.10;;;-0.20;99.90;;;;;;4173438;28;20312;-45
2021/01/12 00:46:15;;;;;;;77.53;38.97;;;-0.20;99.90;;;;;;4172231;28;20608;-36
2021/01/12 00:48:16;;;;;;;70.13;35.37;;;-0.20;99.90;;;;;;4188271;28;20692;-43
2021/01/12 00:50:17;;;;;;;76.53;36.03;;;-0.20;99.90;;;;;;4189403;28;20265;-42
2021/01/12 00:52:18;;;;;;;70.40;35.00;;;-0.20;99.90;;;;;;4189078;28;20334;-40
2021/01/12 00:54:23;;;;;;;70.23;34.77;;;-0.20;99.90;;;;;;4189920;28;20347;-52
2021/01/12 00:56:24;;;;;;;68.83;34.00;;;-0.20;99.90;;;;;;4189004;28;20757;-41
2021/01/12 00:58:25;;;;;;;64.00;32.00;;;-0.20;99.90;;;;;;4182969;28;20673;-40
2021/01/12 01:00:27;;;;;;;66.80;33.13;;;-0.20;99.90;;;;;;4172854;28;21143;-37
2021/01/12 01:02:28;;;;;;;62.33;30.00;;;-0.20;99.90;;;;;;4173154;28;20266;-38
2021/01/12 01:04:29;;;;;;;62.30;31.23;;;-0.20;99.90;;;;;;4171928;28;20297;-39
2021/01/12 01:06:31;;;;;;;61.20;30.67;;;-0.20;99.90;;;;;;4172769;28;20266;-38
2021/01/12 01:08:32;;;;;;;58.97;28.93;;;-0.20;99.90;;;;;;4172403;28;20328;-38
2021/01/12 01:10:37;;;;;;;65.53;31.60;;;-0.20;99.90;;;;;;4172799;28;20782;-56
2021/01/12 01:12:39;;;;;;;67.67;31.10;;;-0.30;99.90;;;;;;4172316;28;20269;-38
2021/01/12 01:14:40;;;;;;;64.07;31.50;;;-0.30;99.90;;;;;;4172600;28;20266;-38
2021/01/12 01:16:42;;;;;;;59.97;29.13;;;-0.30;99.90;;;;;;4173001;28;20383;-41
2021/01/12 01:18:43;;;;;;;64.73;30.53;;;-0.30;99.90;;;;;;4171228;28;20754;-38
2021/01/12 01:20:44;;;;;;;69.30;32.80;;;-0.30;99.90;;;;;;4172892;28;20742;-38
2021/01/12 01:22:45;;;;;;;68.20;31.77;;;-0.20;99.90;;;;;;4172451;28;20324;-38
2021/01/12 01:24:46;;;;;;;68.17;31.93;;;-0.30;99.90;;;;;;4172788;28;20262;-51
2021/01/12 01:26:48;;;;;;;61.33;30.73;;;-0.30;99.90;;;;;;4172136;28;20281;-38
2021/01/12 01:28:49;;;;;;;62.60;31.83;;;-0.20;99.90;;;;;;4172747;28;20911;-39
2021/01/12 01:30:53;;;;;;;67.50;32.60;;;-0.20;99.90;;;;;;4172028;28;20270;-42
2021/01/12 01:32:58;;;;;;;69.47;33.30;;;-0.30;99.90;;;;;;4172682;28;20262;-39
2021/01/12 01:34:59;;;;;;;68.70;34.53;;;-0.30;99.90;;;;;;4172343;28;20254;-42
2021/01/12 01:37:00;;;;;;;67.83;34.23;;;-0.30;99.90;;;;;;4172290;28;20311;-40
2021/01/12 01:39:02;;;;;;;70.27;32.47;;;-0.40;99.90;;;;;;4173955;28;21178;-41
2021/01/12 01:41:08;;;;;;;70.03;33.60;;;-0.40;99.90;;;;;;4172415;28;20746;-40
2021/01/12 01:43:19;;;;;;;71.97;33.83;;;-0.40;99.90;;;;;;4172228;28;20320;-38
2021/01/12 01:45:22;;;;;;;81.75;37.15;;;-0.40;99.90;;;;;;4172827;28;20673;-39
2021/01/12 01:47:24;;;;;;;68.10;34.93;;;-0.40;99.90;;;;;;4171855;28;20060;-38
2021/01/12 01:49:27;;;;;;;71.20;34.33;;;-0.40;99.90;;;;;;4172202;28;20776;-41
2021/01/12 01:51:29;;;;;;;66.57;33.03;;;-0.40;99.90;;;;;;4172141;28;20335;-39
2021/01/12 01:53:34;;;;;;;68.57;32.37;;;-0.40;99.90;;;;;;4172487;28;20681;-40
2021/01/12 01:55:35;;;;;;;62.27;30.50;;;-0.40;99.90;;;;;;4171511;28;20278;-38
2021/01/12 01:57:38;;;;;;;66.83;33.10;;;-0.40;99.90;;;;;;4172084;28;20304;-40
2021/01/12 01:59:40;;;;;;;66.80;31.47;;;-0.40;99.90;;;;;;4172332;28;20347;-39
2021/01/12 02:01:41;;;;;;;71.00;33.20;;;-0.40;99.90;;;;;;4172290;28;20347;-38
2021/01/12 02:03:48;;;;;;;72.20;32.73;;;-0.40;99.90;;;;;;4172475;28;20758;-38
2021/01/12 02:06:02;;;;;;;65.60;32.27;;;-0.40;99.90;;;;;;4172217;28;20308;-41
2021/01/12 02:08:28;;;;;;;64.57;29.33;;;-0.40;99.90;;;;;;4172065;28;20779;-40
2021/01/12 02:10:32;;;;;;;66.80;31.83;;;-0.40;99.90;;;;;;4172068;28;20308;-38
2021/01/12 02:12:39;;;;;;;66.30;31.63;;;-0.40;99.90;;;;;;4172095;28;20278;-37
2021/01/12 02:14:44;;;;;;;58.73;29.07;;;-0.40;99.90;;;;;;4172196;28;20766;-39
2021/01/12 02:16:46;;;;;;;63.07;30.40;;;-0.40;99.90;;;;;;4172486;28;20658;-41
2021/01/12 02:18:49;;;;;;;63.37;31.23;;;-0.40;99.90;;;;;;4172028;28;20257;-37
2021/01/12 02:20:51;;;;;;;69.37;33.20;;;-0.40;99.90;;;;;;4172484;28;20263;-38
2021/01/12 02:23:04;;;;;;;65.37;31.57;;;-0.40;99.90;;;;;;4171625;28;20266;-41
2021/01/12 02:25:08;;;;;;;74.00;34.70;;;-0.40;99.90;;;;;;4171927;28;20270;-40
2021/01/12 02:27:09;;;;;;;67.47;32.33;;;-0.40;99.90;;;;;;4171800;28;20348;-39
2021/01/12 02:29:11;;;;;;;72.93;34.60;;;-0.40;99.90;;;;;;4172747;28;20261;-39
2021/01/12 02:31:12;;;;;;;78.17;34.30;;;-0.40;99.90;;;;;;4171306;28;20278;-43
2021/01/12 02:33:13;;;;;;;76.50;36.70;;;-0.40;99.90;;;;;;4172059;28;20323;-38
2021/01/12 02:35:18;;;;;;;75.47;35.27;;;-0.40;99.90;;;;;;4171586;28;20320;-40
2021/01/12 02:37:20;;;;;;;76.30;36.80;;;-0.40;99.90;;;;;;4172252;28;20312;-40
2021/01/12 02:39:21;;;;;;;77.17;37.30;;;-0.40;99.90;;;;;;4171686;28;20363;-39
2021/01/12 02:41:28;;;;;;;82.70;39.63;;;-0.40;99.90;;;;;;4171789;28;20270;-40
2021/01/12 02:43:29;;;;;;;76.77;35.50;;;-0.40;99.90;;;;;;4171895;28;20262;-40
2021/01/12 02:45:31;;;;;;;78.87;37.43;;;-0.40;99.90;;;;;;4171699;28;20786;-54
2021/01/12 02:47:32;;;;;;;79.40;35.70;;;-0.40;99.90;;;;;;4169714;28;20320;-39
2021/01/12 02:49:33;;;;;;;80.10;35.23;;;-0.40;99.90;;;;;;4172089;28;20270;-39
2021/01/12 02:51:35;;;;;;;72.70;34.87;;;-0.40;99.90;;;;;;4171257;28;20278;-39
2021/01/12 02:53:37;;;;;;;80.23;35.33;;;-0.40;99.90;;;;;;4171871;28;20273;-40
2021/01/12 02:55:39;;;;;;;71.70;33.73;;;-0.40;99.90;;;;;;4172018;28;20340;-39
2021/01/12 02:57:41;;;;;;;77.23;33.73;;;-0.50;99.90;;;;;;4172222;28;20316;-38
2021/01/12 02:59:42;;;;;;;74.53;34.43;;;-0.50;99.90;;;;;;4172545;28;20700;-40
2021/01/12 03:01:43;;;;;;;81.60;36.13;;;-0.40;99.90;;;;;;4171537;28;20746;-38
2021/01/12 03:03:45;;;;;;;80.23;36.00;;;-0.50;99.90;;;;;;4172323;28;20665;-39
2021/01/12 03:05:46;;;;;;;84.17;38.03;;;-0.50;99.90;;;;;;4171247;28;20674;-40
2021/01/12 03:07:48;;;;;;;83.57;37.10;;;-0.50;99.90;;;;;;4172060;28;20306;-46
2021/01/12 03:09:50;;;;;;;80.27;36.53;;;-0.50;99.90;;;;;;4173153;28;20265;-39
2021/01/12 03:11:54;;;;;;;78.70;35.47;;;-0.50;99.90;;;;;;4174356;28;20714;-40
2021/01/12 03:13:57;;;;;;;75.43;35.20;;;-0.50;99.90;;;;;;4174040;28;20274;-42
2021/01/12 03:15:58;;;;;;;78.87;36.93;;;-0.50;99.90;;;;;;4174821;28;20274;-41
2021/01/12 03:17:59;;;;;;;77.87;36.70;;;-0.50;99.90;;;;;;4174071;28;20392;-39
2021/01/12 03:20:00;;;;;;;69.47;34.27;;;-0.50;99.90;;;;;;4174474;28;20282;-40
2021/01/12 03:22:03;;;;;;;73.07;35.60;;;-0.40;99.90;;;;;;4174418;28;20274;-43
2021/01/12 03:24:05;;;;;;;81.63;36.20;;;-0.40;99.90;;;;;;4175096;28;20336;-38
2021/01/12 03:26:07;;;;;;;75.57;36.17;;;-0.40;99.90;;;;;;4174266;28;20304;-43
2021/01/12 03:28:08;;;;;;;80.63;36.53;;;-0.40;99.90;;;;;;4174187;28;20302;-43
2021/01/12 03:30:10;;;;;;;78.93;37.93;;;-0.40;99.90;;;;;;4174628;28;20282;-39
2021/01/12 03:32:11;;;;;;;84.13;36.70;;;-0.40;99.90;;;;;;4173881;28;20753;-46
2021/01/12 03:34:13;;;;;;;90.27;38.70;;;-0.40;99.90;;;;;;4174375;28;20265;-39
2021/01/12 03:36:14;;;;;;;78.97;36.50;;;-0.40;99.90;;;;;;4173720;28;20352;-39
2021/01/12 03:38:15;;;;;;;79.13;36.57;;;-0.40;99.90;;;;;;4174753;28;20278;-41
2021/01/12 03:40:17;;;;;;;88.70;39.13;;;-0.40;99.90;;;;;;4173506;28;20320;-40
2021/01/12 03:42:18;;;;;;;84.27;36.53;;;-0.40;99.90;;;;;;4173833;28;20270;-38
2021/01/12 03:44:20;;;;;;;85.80;39.17;;;-0.40;99.90;;;;;;4173556;28;20335;-39
2021/01/12 03:46:21;;;;;;;77.97;36.47;;;-0.40;99.90;;;;;;4174375;28;20320;-42
2021/01/12 03:48:22;;;;;;;80.60;38.57;;;-0.40;99.90;;;;;;4173477;28;20348;-39
2021/01/12 03:50:27;;;;;;;83.90;37.73;;;-0.40;99.90;;;;;;4173731;28;20305;-41
2021/01/12 03:52:28;;;;;;;76.87;36.47;;;-0.30;99.90;;;;;;4189419;28;20273;-43
2021/01/12 03:54:29;;;;;;;89.33;40.30;;;-0.30;99.90;;;;;;4189853;28;20282;-40
2021/01/12 03:56:30;;;;;;;78.00;36.53;;;-0.20;99.90;;;;;;4190513;28;20277;-46
2021/01/12 03:58:32;;;;;;;74.37;38.60;;;-0.20;99.90;;;;;;4190094;28;20265;-39
2021/01/12 04:00:33;;;;;;;70.13;33.90;;;-0.20;99.90;;;;;;4190357;28;20726;-43
2021/01/12 04:02:34;;;;;;;64.50;32.43;;;-0.20;99.90;;;;;;4188823;28;20327;-37
2021/01/12 04:04:36;;;;;;;87.10;41.33;;;-0.10;99.90;;;;;;4173888;28;20270;-48
2021/01/12 04:06:37;;;;;;;81.27;39.27;;;-0.10;99.90;;;;;;4173311;28;20746;-40
2021/01/12 04:08:43;;;;;;;83.03;40.00;;;0.00;99.90;;;;;;4173858;28;20348;-39
2021/01/12 04:10:45;;;;;;;66.60;33.73;;;0.00;99.90;;;;;;4172713;28;20316;-43
2021/01/12 04:12:48;;;;;;;70.47;34.77;;;0.00;99.90;;;;;;4173690;28;20270;-39
2021/01/12 04:14:49;;;;;;;67.40;33.00;;;0.00;99.90;;;;;;4173265;28;20262;-46
2021/01/12 04:16:50;;;;;;;66.73;33.07;;;0.10;99.90;;;;;;4174142;28;20343;-40
2021/01/12 04:18:51;;;;;;;70.67;32.80;;;0.10;99.90;;;;;;4172834;28;20277;-38
2021/01/12 04:20:52;;;;;;;68.43;33.77;;;0.10;99.90;;;;;;4173589;28;20335;-44
2021/01/12 04:22:54;;;;;;;68.10;33.73;;;0.10;99.90;;;;;;4205049;28;20280;-42
2021/01/12 04:24:55;;;;;;;65.50;33.60;;;0.10;99.90;;;;;;4173072;28;20282;-40
2021/01/12 04:26:56;;;;;;;71.13;33.20;;;0.10;99.90;;;;;;4172889;28;20304;-40
2021/01/12 04:28:57;;;;;;;66.43;33.63;;;0.10;99.90;;;;;;4173826;28;20302;-39
2021/01/12 04:30:58;;;;;;;65.80;34.17;;;0.10;99.90;;;;;;4174084;28;20812;-40
2021/01/12 04:32:59;;;;;;;75.00;33.87;;;0.00;99.90;;;;;;4173225;28;20310;-43
2021/01/12 04:35:01;;;;;;;74.63;34.07;;;0.00;99.90;;;;;;4173118;28;20282;-42
2021/01/12 04:37:02;;;;;;;63.10;30.43;;;0.00;99.90;;;;;;4173456;28;20332;-39
2021/01/12 04:39:03;;;;;;;67.33;30.47;;;0.00;99.90;;;;;;4173506;28;20308;-40
2021/01/12 04:41:05;;;;;;;65.67;31.83;;;-0.10;99.90;;;;;;4172694;28;20286;-40
2021/01/12 04:43:06;;;;;;;63.00;30.10;;;-0.10;99.90;;;;;;4173492;28;20274;-39
2021/01/12 04:45:08;;;;;;;68.67;31.13;;;-0.10;99.90;;;;;;4172583;28;20274;-42
2021/01/12 04:47:10;;;;;;;69.37;31.97;;;-0.10;99.90;;;;;;4173402;28;20328;-40
2021/01/12 04:49:11;;;;;;;70.97;32.57;;;-0.10;99.90;;;;;;4172189;28;20654;-43
2021/01/12 04:51:13;;;;;;;67.93;32.20;;;-0.10;99.90;;;;;;4173227;28;20270;-39
2021/01/12 04:53:14;;;;;;;70.17;32.87;;;-0.10;99.90;;;;;;4172494;28;20278;-39
2021/01/12 04:55:16;;;;;;;71.70;31.47;;;-0.20;99.90;;;;;;4172311;28;20273;-42
2021/01/12 04:57:18;;;;;;;79.77;36.03;;;-0.20;99.90;;;;;;4172841;28;20324;-39
2021/01/12 04:59:27;;;;;;;69.30;34.33;;;-0.20;99.90;;;;;;4171842;28;20286;-40
2021/01/12 05:01:29;;;;;;;75.70;34.63;;;-0.20;99.90;;;;;;4172239;28;20972;-42
2021/01/12 05:03:32;;;;;;;66.50;32.33;;;-0.10;99.90;;;;;;4172607;28;20274;-38
2021/01/12 05:05:35;;;;;;;83.27;36.73;;;-0.10;99.90;;;;;;4173234;28;20270;-41
2021/01/12 05:07:38;;;;;;;72.10;33.40;;;0.00;99.90;;;;;;4172768;28;21213;-51
2021/01/12 05:09:41;;;;;;;78.17;34.60;;;0.00;99.90;;;;;;4172947;28;20267;-41
2021/01/12 05:11:44;;;;;;;63.67;31.57;;;0.00;99.90;;;;;;4170940;28;20347;-38
2021/01/12 05:13:47;;;;;;;97.03;43.20;;;-0.10;99.90;;;;;;4173274;28;20596;-41
2021/01/12 05:15:49;;;;;;;81.33;35.57;;;-0.10;99.90;;;;;;4171872;28;20274;-39
2021/01/12 05:17:54;;;;;;;101.67;44.23;;;-0.10;99.90;;;;;;4172311;28;20274;-52
2021/01/12 05:20:00;;;;;;;80.87;39.30;;;-0.10;99.90;;;;;;4171800;28;20274;-42
2021/01/12 05:22:05;;;;;;;75.27;36.70;;;-0.10;99.90;;;;;;4172902;28;20274;-39
2021/01/12 05:24:09;;;;;;;74.90;35.23;;;-0.20;99.90;;;;;;4171411;28;20270;-39
2021/01/12 05:26:13;;;;;;;71.90;35.93;;;-0.10;99.90;;;;;;4172484;28;20269;-40
2021/01/12 05:28:14;;;;;;;68.20;32.67;;;-0.10;99.90;;;;;;4171252;28;20293;-54
2021/01/12 05:30:21;;;;;;;67.90;32.80;;;-0.20;99.90;;;;;;4172602;28;20327;-42
2021/01/12 05:32:22;;;;;;;81.17;35.50;;;-0.20;99.90;;;;;;4171492;28;20336;-39
2021/01/12 05:34:25;;;;;;;73.27;34.73;;;-0.20;99.90;;;;;;4171667;28;20282;-41
2021/01/12 05:36:29;;;;;;;69.03;32.37;;;-0.30;99.90;;;;;;4172494;28;20343;-39
2021/01/12 05:38:32;;;;;;;72.80;30.80;;;-0.20;99.90;;;;;;4172018;28;20324;-43
2021/01/12 05:40:37;;;;;;;76.30;34.90;;;-0.10;99.90;;;;;;4171613;28;20271;-40
2021/01/12 05:42:39;;;;;;;68.97;33.57;;;0.00;99.90;;;;;;4170403;28;20286;-43
2021/01/12 05:44:41;;;;;;;70.93;32.17;;;0.00;99.90;;;;;;4171173;28;20278;-47
2021/01/12 05:46:53;;;;;;;90.43;39.13;;;-0.10;99.90;;;;;;4172291;28;20713;-38
2021/01/12 05:48:56;;;;;;;86.20;40.97;;;-0.10;99.90;;;;;;4171637;28;20290;-39
2021/01/12 05:51:03;;;;;;;85.53;37.70;;;-0.10;99.90;;;;;;4171526;28;20277;-42
2021/01/12 05:53:12;;;;;;;86.03;38.43;;;-0.10;99.90;;;;;;4166494;28;20886;-41
2021/01/12 05:55:16;;;;;;;74.63;35.97;;;-0.10;99.90;;;;;;4155030;28;20824;-39
2021/01/12 05:57:23;;;;;;;79.40;35.23;;;-0.20;99.90;;;;;;4155791;28;20647;-41
2021/01/12 05:59:26;;;;;;;88.27;37.87;;;-0.20;99.90;;;;;;4155365;28;20278;-45
2021/01/12 06:01:49;;;;;;;84.27;36.63;;;-0.20;99.90;;;;;;4168027;28;20328;-40
2021/01/12 06:03:52;;;;;;;76.50;35.67;;;-0.20;99.90;;;;;;4171563;28;20344;-40
2021/01/12 06:05:54;;;;;;;74.57;34.27;;;-0.20;99.90;;;;;;4171402;28;20281;-39
2021/01/12 06:07:55;;;;;;;71.27;33.53;;;-0.30;99.90;;;;;;4170930;28;20899;-51
2021/01/12 06:09:57;;;;;;;75.87;36.43;;;-0.20;99.90;;;;;;4171505;28;20335;-39
2021/01/12 06:11:58;;;;;;;79.07;36.23;;;-0.20;99.90;;;;;;4170987;28;21001;-42
2021/01/12 06:14:10;;;;;;;73.60;35.90;;;-0.20;99.90;;;;;;4171736;28;20266;-40
2021/01/12 06:16:21;;;;;;;67.70;32.97;;;-0.20;99.90;;;;;;4169959;28;20344;-45
2021/01/12 06:18:26;;;;;;;75.27;34.00;;;-0.10;99.90;;;;;;4171942;28;20266;-43
2021/01/12 06:20:31;;;;;;;71.60;31.63;;;-0.20;99.90;;;;;;4170766;28;20278;-41
2021/01/12 06:22:42;;;;;;;93.40;42.93;;;-0.20;99.90;;;;;;4171617;28;20737;-41
2021/01/12 06:25:01;;;;;;;85.80;35.42;;;-0.20;99.90;;;;;;4170628;28;20774;-41
2021/01/12 06:27:07;;;;;;;89.40;39.17;;;-0.20;99.90;;;;;;4170395;28;20390;-42
2021/01/12 06:29:08;;;;;;;85.40;38.63;;;-0.30;99.90;;;;;;4170408;28;20782;-39
2021/01/12 06:31:12;;;;;;;94.67;42.90;;;-0.30;99.90;;;;;;4171987;28;20273;-42
2021/01/12 06:33:15;;;;;;;89.63;40.67;;;-0.40;99.90;;;;;;4170665;28;20348;-45
2021/01/12 06:35:17;;;;;;;80.93;37.97;;;-0.40;99.90;;;;;;4171672;28;20342;-41
2021/01/12 06:37:20;;;;;;;86.33;40.17;;;-0.40;99.90;;;;;;4170975;28;20331;-47
2021/01/12 06:39:24;;;;;;;80.13;37.33;;;-0.40;99.90;;;;;;4171298;28;20370;-43
2021/01/12 06:41:28;;;;;;;80.47;37.63;;;-0.40;99.90;;;;;;4170889;28;20383;-39
2021/01/12 06:43:29;;;;;;;86.53;34.77;;;-0.40;99.90;;;;;;4171308;28;20708;-39
2021/01/12 06:45:35;;;;;;;90.33;40.10;;;-0.40;99.90;;;;;;4174347;28;20304;-39
2021/01/12 06:47:38;;;;;;;91.67;40.87;;;-0.40;99.90;;;;;;4173036;28;20328;-40
2021/01/12 06:49:39;;;;;;;104.07;43.33;;;-0.40;99.90;;;;;;4174652;28;20375;-43
2021/01/12 06:51:41;;;;;;;113.40;44.13;;;-0.40;99.90;;;;;;4174925;28;20750;-43
2021/01/12 06:53:46;;;;;;;126.97;48.57;;;-0.30;99.90;;;;;;4174545;28;20673;-39
2021/01/12 06:55:47;;;;;;;111.23;47.60;;;-0.30;99.90;;;;;;4174227;28;20269;-44
2021/01/12 06:57:50;;;;;;;115.03;48.30;;;-0.30;99.90;;;;;;4174797;28;20277;-39
2021/01/12 06:59:53;;;;;;;122.60;48.57;;;-0.30;99.90;;;;;;4174357;28;20373;-42
2021/01/12 07:01:56;;;;;;;113.73;50.40;;;-0.30;99.90;;;;;;4175122;28;20282;-43
2021/01/12 07:03:57;;;;;;;118.07;50.10;;;-0.30;99.90;;;;;;4174416;28;20931;-46
2021/01/12 07:06:00;;;;;;;116.87;50.10;;;-0.20;99.90;;;;;;4174621;28;20266;-38
2021/01/12 07:08:07;;;;;;;115.23;50.23;;;-0.20;99.90;;;;;;4173685;28;21030;-43
2021/01/12 07:10:11;;;;;;;117.70;50.00;;;-0.10;99.90;;;;;;4174070;28;20278;-43
2021/01/12 07:12:20;;;;;;;116.97;49.60;;;-0.10;99.90;;;;;;4173683;28;20262;-42
2021/01/12 07:14:25;;;;;;;109.33;47.70;;;0.00;99.90;;;;;;4174763;28;20278;-40
2021/01/12 07:16:26;;;;;;;117.47;48.57;;;0.00;99.90;;;;;;4174182;28;20267;-39
2021/01/12 07:18:27;;;;;;;109.87;45.33;;;0.10;99.90;;;;;;4174422;28;20264;-41
2021/01/12 07:20:28;;;;;;;102.90;42.17;;;0.10;99.90;;;;;;4174403;28;20282;-46
2021/01/12 07:22:34;;;;;;;103.07;43.03;;;0.10;99.90;;;;;;4174668;28;20262;-48
2021/01/12 07:24:39;;;;;;;111.53;48.47;;;0.10;99.90;;;;;;4174124;28;20343;-41
2021/01/12 07:26:41;;;;;;;104.37;45.03;;;0.00;99.90;;;;;;4173721;28;20331;-41
2021/01/12 07:28:46;;;;;;;101.93;42.30;;;0.10;99.90;;;;;;4173925;28;20294;-43
2021/01/12 07:30:49;;;;;;;83.40;37.87;;;0.10;99.90;;;;;;4174270;28;20289;-46
2021/01/12 07:32:59;;;;;;;81.03;36.57;;;0.10;99.90;;;;;;4174169;28;20701;-45
2021/01/12 07:35:07;;;;;;;88.80;40.70;;;0.20;99.90;;;;;;4173817;28;20266;-47
2021/01/12 07:37:12;;;;;;;83.70;35.33;;;0.20;99.90;;;;;;4173912;28;20094;-43
2021/01/12 07:39:14;;;;;;;84.57;35.70;;;0.20;99.90;;;;;;4174013;28;20300;-46
2021/01/12 07:41:17;;;;;;;88.93;36.53;;;0.20;99.90;;;;;;4173204;28;20665;-47
2021/01/12 07:43:20;;;;;;;81.73;33.97;;;0.20;99.90;;;;;;4173654;28;20313;-41
2021/01/12 07:45:24;;;;;;;76.03;34.00;;;0.20;99.90;;;;;;4173269;28;20266;-41
2021/01/12 07:47:26;;;;;;;84.87;33.53;;;0.30;99.90;;;;;;4173608;28;20316;-40
2021/01/12 07:49:28;;;;;;;71.43;32.43;;;0.30;99.90;;;;;;4173458;28;20348;-40
2021/01/12 07:51:29;;;;;;;66.90;30.37;;;0.30;99.90;;;;;;4173222;28;20331;-38
2021/01/12 07:53:33;;;;;;;76.77;32.27;;;0.30;99.90;;;;;;4174125;28;20941;-40
2021/01/12 07:55:42;;;;;;;80.60;33.60;;;0.30;99.90;;;;;;4171901;28;20359;-42
2021/01/12 07:57:46;;;;;;;83.37;33.17;;;0.30;99.90;;;;;;4173548;28;20332;-45
2021/01/12 07:59:48;;;;;;;82.43;36.87;;;0.30;99.90;;;;;;4173391;28;20304;-40
2021/01/12 08:01:49;;;;;;;79.60;34.00;;;0.40;99.90;;;;;;4174586;28;20626;-40
2021/01/12 08:03:51;;;;;;;82.83;37.03;;;0.50;99.90;;;;;;4173031;28;20356;-40
2021/01/12 08:05:59;;;;;;;86.43;38.80;;;0.60;99.90;;;;;;4173478;28;20278;-46
2021/01/12 08:08:04;;;;;;;89.47;37.13;;;0.60;99.90;;;;;;4173264;28;20320;-42
2021/01/12 08:10:07;;;;;;;80.67;35.70;;;0.60;99.90;;;;;;4173609;28;20769;-48
2021/01/12 08:12:08;;;;;;;90.67;40.53;;;0.60;99.90;;;;;;4173066;28;20680;-45
2021/01/12 08:14:09;;;;;;;92.47;40.13;;;0.60;99.90;;;;;;4173299;28;20270;-40
2021/01/12 08:16:12;;;;;;;94.47;41.57;;;0.60;99.90;;;;;;4173287;28;20282;-44
2021/01/12 08:18:21;;;;;;;96.20;42.90;;;0.60;99.90;;;;;;4173136;28;20431;-44
2021/01/12 08:20:22;;;;;;;89.70;38.10;;;0.60;99.90;;;;;;4173381;28;20266;-44
2021/01/12 08:22:24;;;;;;;100.97;40.53;;;0.60;99.90;;;;;;4172624;28;20328;-41
2021/01/12 08:24:26;;;;;;;87.90;38.77;;;0.50;99.90;;;;;;4173191;28;20274;-44
2021/01/12 08:26:28;;;;;;;94.60;40.40;;;0.60;99.90;;;;;;4172781;28;20270;-44
2021/01/12 08:28:29;;;;;;;94.13;39.43;;;0.50;99.90;;;;;;4172889;28;20301;-44
2021/01/12 08:30:35;;;;;;;87.83;36.80;;;0.50;99.90;;;;;;4172609;28;20266;-42
2021/01/12 08:32:43;;;;;;;87.70;36.83;;;0.60;99.90;;;;;;4173025;28;20270;-48
2021/01/12 08:35:07;;;;;;;80.27;34.63;;;0.60;99.90;;;;;;4172435;28;20320;-40
2021/01/12 08:37:09;;;;;;;78.27;34.60;;;0.60;99.90;;;;;;4172725;28;20351;-41
2021/01/12 08:39:10;;;;;;;86.67;38.43;;;0.60;99.90;;;;;;4173025;28;20266;-46
2021/01/12 08:41:12;;;;;;;93.07;37.30;;;0.60;99.90;;;;;;4172727;28;20343;-45
2021/01/12 08:43:26;;;;;;;95.33;41.17;;;0.60;99.90;;;;;;4172167;28;20665;-44
2021/01/12 08:45:33;;;;;;;95.23;40.40;;;0.70;99.90;;;;;;4173203;28;20332;-44
2021/01/12 08:47:34;;;;;;;99.27;41.07;;;0.70;99.90;;;;;;4172212;28;20305;-42
2021/01/12 08:49:36;;;;;;;110.87;45.67;;;0.70;99.90;;;;;;4172975;28;20328;-42
2021/01/12 08:51:38;;;;;;;96.37;42.77;;;0.70;99.90;;;;;;4172025;28;20278;-39
2021/01/12 08:53:40;;;;;;;101.63;40.60;;;0.80;99.90;;;;;;4172798;28;20251;-42
2021/01/12 08:55:41;;;;;;;91.90;39.13;;;0.80;99.90;;;;;;4171569;28;20339;-42
2021/01/12 08:57:57;;;;;;;83.70;37.40;;;0.90;99.90;;;;;;4172439;28;20777;-47
2021/01/12 09:00:10;;;;;;;91.50;35.90;;;1.00;99.90;;;;;;4172242;28;20324;-45
2021/01/12 09:02:18;;;;;;;86.10;36.70;;;0.90;99.90;;;;;;4172484;28;20303;-46
2021/01/12 09:04:19;;;;;;;81.30;32.83;;;1.00;99.90;;;;;;4172025;28;20297;-42
2021/01/12 09:06:22;;;;;;;72.33;31.13;;;1.10;99.90;;;;;;4172013;28;21109;-43
2021/01/12 09:08:25;;;;;;;69.93;31.60;;;1.10;99.90;;;;;;4171576;28;20282;-46
2021/01/12 09:10:27;;;;;;;66.50;30.20;;;1.30;99.90;;;;;;4171321;28;20324;-41
2021/01/12 09:12:30;;;;;;;61.07;28.17;;;1.40;99.90;;;;;;4172597;28;20614;-40
2021/01/12 09:14:31;;;;;;;61.33;26.17;;;1.50;99.90;;;;;;4172079;28;20316;-43
2021/01/12 09:16:33;;;;;;;60.40;26.93;;;1.70;99.90;;;;;;4172451;28;20274;-52
2021/01/12 09:18:37;;;;;;;59.53;26.57;;;1.80;99.90;;;;;;4172355;28;20258;-40
2021/01/12 09:20:39;;;;;;;58.17;26.60;;;1.80;99.90;;;;;;4173065;28;20255;-41
2021/01/12 09:22:40;;;;;;;63.37;27.43;;;1.90;99.90;;;;;;4172107;28;20828;-42
2021/01/12 09:24:49;;;;;;;54.57;26.17;;;1.90;99.90;;;;;;4173170;28;20270;-43
2021/01/12 09:27:00;;;;;;;63.53;28.60;;;2.00;99.90;;;;;;4171867;28;20262;-42
2021/01/12 09:29:01;;;;;;;60.72;27.13;;;2.00;99.90;;;;;;4172662;28;20387;-40
2021/01/12 09:31:06;;;;;;;69.57;28.80;;;2.10;99.90;;;;;;4171422;28;20375;-43
2021/01/12 09:33:08;;;;;;;73.33;32.57;;;2.10;99.90;;;;;;4172458;28;21008;-44
2021/01/12 09:35:09;;;;;;;70.53;32.03;;;2.10;99.90;;;;;;4171392;28;20340;-44
2021/01/12 09:37:20;;;;;;;64.63;29.57;;;2.20;99.90;;;;;;4171685;28;20740;-39
2021/01/12 09:39:26;;;;;;;66.10;30.38;;;2.20;99.90;;;;;;4171181;28;20316;-51
2021/01/12 09:41:28;;;;;;;60.17;28.27;;;2.20;99.90;;;;;;4171745;28;20487;-51
2021/01/12 09:43:29;;;;;;;57.27;27.10;;;2.10;99.90;;;;;;4171347;28;20315;-42
2021/01/12 09:45:33;;;;;;;50.40;25.63;;;2.10;99.90;;;;;;4172014;28;20329;-39
2021/01/12 09:47:35;;;;;;;51.33;24.13;;;2.10;99.90;;;;;;4171206;28;20270;-43
2021/01/12 09:49:36;;;;;;;51.77;25.33;;;2.10;99.90;;;;;;4172101;28;20294;-45
2021/01/12 09:51:37;;;;;;;55.77;25.27;;;2.10;99.90;;;;;;4171180;28;20274;-39
2021/01/12 09:53:46;;;;;;;55.27;24.87;;;2.10;99.90;;;;;;4172089;28;20282;-41
2021/01/12 09:55:47;;;;;;;52.43;25.20;;;2.10;99.90;;;;;;4171173;28;20258;-41
2021/01/12 09:57:50;;;;;;;51.53;25.33;;;2.10;99.90;;;;;;4171693;28;20278;-43
2021/01/12 09:59:51;;;;;;;51.00;23.97;;;2.10;99.90;;;;;;4170076;28;21114;-43
2021/01/12 10:01:56;;;;;;;56.00;25.33;;;2.00;99.90;;;;;;4170325;28;20274;-44
2021/01/12 10:03:57;;;;;;;59.80;24.20;;;2.00;99.90;;;;;;4171410;28;20343;-54
2021/01/12 10:05:59;;;;;;;48.90;23.87;;;1.90;99.90;;;;;;4171884;28;20293;-44
2021/01/12 10:08:00;;;;;;;53.50;24.43;;;1.90;99.90;;;;;;4171065;28;20282;-44
2021/01/12 10:10:01;;;;;;;54.50;24.63;;;1.90;99.90;;;;;;4170718;28;20344;-39
2021/01/12 10:12:03;;;;;;;53.50;25.77;;;1.90;99.90;;;;;;4171302;28;20370;-43
2021/01/12 10:14:04;;;;;;;61.50;28.60;;;1.90;99.90;;;;;;4170543;28;20312;-47
2021/01/12 10:16:05;;;;;;;61.17;26.70;;;1.90;99.90;;;;;;4170079;28;20278;-43
2021/01/12 10:18:07;;;;;;;56.73;28.43;;;1.90;99.90;;;;;;4170178;28;20737;-42
2021/01/12 10:20:08;;;;;;;65.93;30.47;;;2.00;99.90;;;;;;4175462;28;20270;-41
2021/01/12 10:22:09;;;;;;;68.77;27.63;;;2.00;99.90;;;;;;4174880;28;20293;-44
2021/01/12 10:24:10;;;;;;;59.93;29.20;;;2.00;99.90;;;;;;4174428;28;20324;-40
2021/01/12 10:26:19;;;;;;;64.60;29.07;;;1.90;99.90;;;;;;4175026;28;20311;-44
2021/01/12 10:28:20;;;;;;;60.80;27.03;;;1.90;99.90;;;;;;4174814;28;20286;-43